createdAt,value
2023-03-06T00:01:54.073Z,95435.34
2023-03-06T00:04:20.772Z,95441.22
2023-03-06T00:06:47.392Z,95434.31
2023-03-06T00:09:14.010Z,95436.75
2023-03-06T00:11:40.619Z,95437.00
2023-03-06T00:14:07.257Z,95431.13
2023-03-06T00:16:34.079Z,95434.03
2023-03-06T00:19:00.695Z,95434.91
2023-03-06T00:21:27.356Z,95436.72
2023-03-06T00:23:53.991Z,95434.84
2023-03-06T00:26:20.625Z,95428.22
2023-03-06T00:28:47.222Z,95421.59
2023-03-06T00:31:13.932Z,95424.53
2023-03-06T00:33:40.642Z,95417.59
2023-03-06T00:36:07.572Z,95422.63
2023-03-06T00:38:35.661Z,95410.91
2023-03-06T00:41:10.642Z,95405.81
2023-03-06T00:43:37.499Z,95403.47
2023-03-06T00:46:05.716Z,95397.06
2023-03-06T00:48:33.346Z,95403.47
2023-03-06T00:51:00.442Z,95396.28
2023-03-06T00:53:27.149Z,95390.19
2023-03-06T00:55:53.884Z,95389.38
2023-03-06T00:58:20.556Z,95382.75
2023-03-06T01:00:47.223Z,95376.69
2023-03-06T01:03:13.882Z,95373.50
2023-03-06T01:05:40.699Z,95371.88
2023-03-06T01:08:08.825Z,95368.41
2023-03-06T01:10:38.961Z,95363.66
2023-03-06T01:13:06.051Z,95362.03
2023-03-06T01:15:32.768Z,95362.03
2023-03-06T01:17:59.435Z,95362.34
2023-03-06T01:20:26.177Z,95351.41
2023-03-06T01:22:54.533Z,95345.06
2023-03-06T01:25:21.464Z,95345.63
2023-03-06T01:27:48.124Z,95337.59
2023-03-06T01:30:14.919Z,95336.50
2023-03-06T01:32:41.624Z,95335.44
2023-03-06T01:35:09.023Z,95333.94
2023-03-06T01:37:36.776Z,95322.34
2023-03-06T01:40:04.397Z,95320.22
2023-03-06T01:42:32.190Z,95326.75
2023-03-06T01:45:04.385Z,95310.47
2023-03-06T01:47:31.198Z,95308.88
2023-03-06T01:49:59.108Z,95312.66
2023-03-06T01:52:30.356Z,95302.03
2023-03-06T01:55:02.938Z,95295.06
2023-03-06T01:57:40.975Z,95286.03
2023-03-06T02:00:12.383Z,95289.53
2023-03-06T02:02:40.377Z,95284.63
2023-03-06T02:05:07.778Z,95283.75
2023-03-06T02:07:36.286Z,95282.97
2023-03-06T02:10:02.944Z,95280.41
2023-03-06T02:12:29.666Z,95275.81
2023-03-06T02:14:56.474Z,95273.91
2023-03-06T02:17:24.273Z,95260.63
2023-03-06T02:20:12.092Z,95260.50
2023-03-06T02:23:05.061Z,95256.84
2023-03-06T02:25:46.080Z,95250.63
2023-03-06T02:28:16.147Z,95238.31
2023-03-06T02:30:44.950Z,95240.91
2023-03-06T02:33:14.299Z,95242.53
2023-03-06T02:35:46.658Z,95239.03
2023-03-06T02:38:19.794Z,95237.16
2023-03-06T02:40:49.819Z,95234.53
2023-03-06T02:43:21.215Z,95226.03
2023-03-06T02:45:50.531Z,95226.09
2023-03-06T02:48:18.779Z,95214.13
2023-03-06T02:50:46.554Z,95213.28
2023-03-06T02:53:15.053Z,95211.72
2023-03-06T02:55:42.455Z,95197.34
2023-03-06T02:58:09.310Z,95207.19
2023-03-06T03:00:36.549Z,95198.44
2023-03-06T03:03:04.378Z,95196.34
2023-03-06T03:05:31.452Z,95190.69
2023-03-06T03:07:58.449Z,95190.38
2023-03-06T03:10:25.311Z,95181.53
2023-03-06T03:12:51.971Z,95186.53
2023-03-06T03:15:18.695Z,95186.31
2023-03-06T03:17:45.304Z,95187.38
2023-03-06T03:20:15.082Z,95180.22
2023-03-06T03:22:41.796Z,95186.22
2023-03-06T03:25:09.290Z,95183.59
2023-03-06T03:27:35.891Z,95181.63
2023-03-06T03:30:02.563Z,95176.50
2023-03-06T03:32:29.608Z,95176.28
2023-03-06T03:34:56.517Z,95172.53
2023-03-06T03:37:23.269Z,95174.19
2023-03-06T03:39:49.941Z,95168.78
2023-03-06T03:42:16.603Z,95165.66
2023-03-06T03:44:43.266Z,95162.94
2023-03-06T03:47:09.904Z,95166.16
2023-03-06T03:49:36.542Z,95156.03
2023-03-06T03:52:03.324Z,95155.63
2023-03-06T03:54:29.968Z,95144.28
2023-03-06T03:56:56.630Z,95148.44
2023-03-06T03:59:23.306Z,95142.41
2023-03-06T04:01:49.949Z,95132.81
2023-03-06T04:04:16.634Z,95138.03
2023-03-06T04:06:43.343Z,95133.28
2023-03-06T04:09:10.162Z,95135.03
2023-03-06T04:11:36.946Z,95133.44
2023-03-06T04:14:03.590Z,95127.66
2023-03-06T04:16:30.396Z,95124.50
2023-03-06T04:18:57.176Z,95121.22
2023-03-06T04:21:23.769Z,95123.59
2023-03-06T04:23:50.457Z,95113.22
2023-03-06T04:26:17.050Z,95116.53
2023-03-06T04:28:43.720Z,95114.88
2023-03-06T04:31:12.426Z,95107.94
2023-03-06T04:33:39.639Z,95117.00
2023-03-06T04:36:06.521Z,95113.81
2023-03-06T04:38:33.290Z,95104.50
2023-03-06T04:40:59.941Z,95104.88
2023-03-06T04:43:26.787Z,95100.09
2023-03-06T04:45:53.464Z,95097.50
2023-03-06T04:48:20.117Z,95100.38
2023-03-06T04:50:46.982Z,95094.03
2023-03-06T04:53:14.695Z,95097.50
2023-03-06T04:55:41.362Z,95097.59
2023-03-06T04:58:07.991Z,95085.31
2023-03-06T05:00:34.812Z,95085.09
2023-03-06T05:03:02.037Z,95079.00
2023-03-06T05:05:29.375Z,95078.75
2023-03-06T05:07:56.500Z,95073.16
2023-03-06T05:10:23.915Z,95080.88
2023-03-06T05:12:50.578Z,95082.16
2023-03-06T05:15:17.868Z,95080.53
2023-03-06T05:17:44.767Z,95084.03
2023-03-06T05:20:13.190Z,95082.16
2023-03-06T05:22:40.357Z,95079.56
2023-03-06T05:25:07.567Z,95087.00
2023-03-06T05:27:34.557Z,95080.09
2023-03-06T05:30:01.372Z,95081.19
2023-03-06T05:32:28.478Z,95079.28
2023-03-06T05:34:55.698Z,95081.13
2023-03-06T05:37:23.192Z,95081.66
2023-03-06T05:39:51.042Z,95084.03
2023-03-06T05:42:18.486Z,95079.81
2023-03-06T05:44:45.396Z,95083.84
2023-03-06T05:47:12.636Z,95080.38
2023-03-06T05:49:39.634Z,95075.88
2023-03-06T05:52:07.333Z,95073.19
2023-03-06T05:54:36.740Z,95077.94
2023-03-06T05:57:05.345Z,95087.06
2023-03-06T05:59:33.170Z,95088.72
2023-03-06T06:02:00.766Z,95084.44
2023-03-06T06:04:27.865Z,95079.03
2023-03-06T06:06:58.029Z,95080.09
2023-03-06T06:09:24.936Z,95077.78
2023-03-06T06:11:56.618Z,95084.22
2023-03-06T06:14:23.626Z,95079.13
2023-03-06T06:16:50.333Z,95082.81
2023-03-06T06:19:20.379Z,95083.59
2023-03-06T06:21:48.969Z,95080.69
2023-03-06T06:24:17.135Z,95088.38
2023-03-06T06:26:44.002Z,95092.28
2023-03-06T06:29:11.940Z,95087.72
2023-03-06T06:31:39.450Z,95090.09
2023-03-06T06:34:07.409Z,95093.00
2023-03-06T06:36:34.636Z,95090.91
2023-03-06T06:39:01.608Z,95092.22
2023-03-06T06:41:50.735Z,95093.25
2023-03-06T06:44:16.272Z,95092.66
2023-03-06T06:49:32.219Z,95086.56
2023-03-06T06:51:58.934Z,95094.47
2023-03-06T06:54:26.386Z,95089.34
2023-03-06T06:56:53.043Z,95082.72
2023-03-06T06:59:20.002Z,95085.81
2023-03-06T07:01:46.697Z,95088.13
2023-03-06T07:04:14.100Z,95086.53
2023-03-06T07:06:41.838Z,95085.97
2023-03-06T07:09:08.513Z,95088.00
2023-03-06T07:11:35.171Z,95086.53
2023-03-06T07:14:02.112Z,95092.78
2023-03-06T07:16:28.715Z,95094.25
2023-03-06T07:18:55.368Z,95091.16
2023-03-06T07:21:22.210Z,95085.63
2023-03-06T07:23:48.854Z,95089.06
2023-03-06T07:26:15.587Z,95099.50
2023-03-06T07:28:51.962Z,95100.25
2023-03-06T07:31:22.253Z,95099.97
2023-03-06T07:33:50.733Z,95097.63
2023-03-06T07:36:17.552Z,95093.56
2023-03-06T07:38:44.177Z,95090.59
2023-03-06T07:41:13.677Z,95088.75
2023-03-06T07:43:41.317Z,95095.84
2023-03-06T07:46:08.271Z,95098.41
2023-03-06T07:48:36.276Z,95099.69
2023-03-06T07:51:05.984Z,95098.81
2023-03-06T07:53:33.303Z,95098.16
2023-03-06T07:56:00.468Z,95097.97
2023-03-06T07:58:27.203Z,95102.69
2023-03-06T08:00:53.851Z,95102.66
2023-03-06T08:03:20.474Z,95111.31
2023-03-06T08:05:47.132Z,95104.81
2023-03-06T08:08:13.800Z,95111.72
2023-03-06T08:10:40.555Z,95107.88
2023-03-06T08:13:07.168Z,95110.41
2023-03-06T08:15:33.808Z,95099.19
2023-03-06T08:18:00.450Z,95096.59
2023-03-06T08:20:27.140Z,95105.88
2023-03-06T08:22:53.726Z,95112.50
2023-03-06T08:25:20.348Z,95120.00
2023-03-06T08:27:47.499Z,95116.28
2023-03-06T08:30:14.818Z,95115.50
2023-03-06T08:32:41.583Z,95128.78
2023-03-06T08:35:08.687Z,95115.81
2023-03-06T08:37:35.342Z,95123.41
2023-03-06T08:40:04.657Z,95119.34
2023-03-06T08:42:32.591Z,95117.19
2023-03-06T08:44:59.259Z,95123.13
2023-03-06T08:47:26.034Z,95126.28
2023-03-06T08:49:52.687Z,95130.06
2023-03-06T08:52:19.941Z,95121.59
2023-03-06T08:54:46.682Z,95117.22
2023-03-06T08:57:13.370Z,95117.81
2023-03-06T08:59:40.061Z,95116.75
2023-03-06T09:02:07.811Z,95116.41
2023-03-06T09:04:34.779Z,95130.34
2023-03-06T09:07:01.874Z,95129.06
2023-03-06T09:09:28.591Z,95123.84
2023-03-06T09:11:55.214Z,95120.94
2023-03-06T09:14:21.975Z,95117.06
2023-03-06T09:16:48.623Z,95110.88
2023-03-06T09:19:15.248Z,95108.38
2023-03-06T09:21:41.919Z,95124.16
2023-03-06T09:24:08.936Z,95122.06
2023-03-06T09:26:45.453Z,95121.72
2023-03-06T09:29:13.167Z,95126.53
2023-03-06T09:31:39.805Z,95119.59
2023-03-06T09:34:06.456Z,95119.44
2023-03-06T09:36:42.728Z,95121.25
2023-03-06T09:39:16.132Z,95120.81
2023-03-06T09:41:43.143Z,95114.38
2023-03-06T09:44:21.263Z,95126.47
2023-03-06T09:47:22.267Z,95122.47
2023-03-06T09:50:01.239Z,95118.59
2023-03-06T09:52:33.607Z,95115.22
2023-03-06T09:55:14.903Z,95121.81
2023-03-06T09:58:07.213Z,95119.38
2023-03-06T10:00:38.724Z,95128.81
2023-03-06T10:03:22.250Z,95123.97
2023-03-06T10:06:18.465Z,95130.72
2023-03-06T10:09:10.239Z,95123.31
2023-03-06T10:11:43.539Z,95129.50
2023-03-06T10:14:22.821Z,95124.09
2023-03-06T10:16:49.734Z,95122.66
2023-03-06T10:19:21.411Z,95122.38
2023-03-06T10:22:21.833Z,95122.56
2023-03-06T10:24:53.347Z,95124.50
2023-03-06T10:27:36.568Z,95117.72
2023-03-06T10:30:23.194Z,95106.63
2023-03-06T10:33:22.872Z,95112.59
2023-03-06T10:35:52.262Z,95102.50
2023-03-06T10:38:26.516Z,95108.09
2023-03-06T10:41:08.874Z,95106.31
2023-03-06T10:43:36.773Z,95104.22
2023-03-06T10:46:05.289Z,95097.91
2023-03-06T10:48:36.163Z,95099.66
2023-03-06T10:51:23.491Z,95089.41
2023-03-06T10:53:59.658Z,95090.91
2023-03-06T10:56:38.808Z,95089.41
2023-03-06T10:59:12.860Z,95088.03
2023-03-06T11:01:41.275Z,95084.56
2023-03-06T11:04:27.485Z,95092.16
2023-03-06T11:07:16.076Z,95084.59
2023-03-06T11:09:47.732Z,95087.66
2023-03-06T11:12:34.074Z,95076.75
2023-03-06T11:15:17.653Z,95086.56
2023-03-06T11:18:08.939Z,95087.75
2023-03-06T11:20:51.385Z,95081.06
2023-03-06T11:23:29.173Z,95082.31
2023-03-06T11:26:02.433Z,95071.16
2023-03-06T11:28:30.246Z,95072.00
2023-03-06T11:31:03.850Z,95077.91
2023-03-06T11:33:53.718Z,95067.97
2023-03-06T11:36:30.456Z,95064.72
2023-03-06T11:38:57.123Z,95069.00
2023-03-06T11:41:59.115Z,95075.84
2023-03-06T11:45:07.234Z,95066.28
2023-03-06T11:47:55.280Z,95064.75
2023-03-06T11:50:37.708Z,95064.69
2023-03-06T11:53:10.425Z,95063.81
2023-03-06T11:56:22.902Z,95059.53
2023-03-06T11:59:12.011Z,95064.97
2023-03-06T12:01:58.085Z,95054.69
2023-03-06T12:04:51.120Z,95055.75
2023-03-06T12:07:33.765Z,95056.50
2023-03-06T12:10:33.151Z,95054.78
2023-03-06T12:13:14.895Z,95054.31
2023-03-06T12:15:56.775Z,95055.91
2023-03-06T12:18:32.371Z,95057.72
2023-03-06T12:21:07.844Z,95059.16
2023-03-06T12:24:05.204Z,95054.13
2023-03-06T12:27:00.137Z,95057.09
2023-03-06T12:29:41.649Z,95057.75
2023-03-06T12:32:22.442Z,95052.00
2023-03-06T12:35:06.097Z,95051.56
2023-03-06T12:37:45.387Z,95046.28
2023-03-06T12:40:44.302Z,95054.38
2023-03-06T12:43:39.886Z,95043.31
2023-03-06T12:46:21.570Z,95043.31
2023-03-06T12:48:54.845Z,95037.81
2023-03-06T12:51:21.639Z,95048.28
2023-03-06T12:53:50.385Z,95042.88
2023-03-06T12:56:19.086Z,95044.03
2023-03-06T12:58:53.922Z,95045.78
2023-03-06T13:01:47.744Z,95048.75
2023-03-06T13:04:35.775Z,95051.44
2023-03-06T13:07:11.389Z,95047.81
2023-03-06T13:10:03.724Z,95050.31
2023-03-06T13:13:08.632Z,95042.91
2023-03-06T13:15:45.940Z,95041.84
2023-03-06T13:18:21.581Z,95040.94
2023-03-06T13:20:52.790Z,95038.53
2023-03-06T13:23:38.366Z,95040.81
2023-03-06T13:26:25.418Z,95040.25
2023-03-06T13:28:54.112Z,95039.88
2023-03-06T13:31:33.890Z,95031.06
2023-03-06T13:34:05.836Z,95029.72
2023-03-06T13:36:39.579Z,95023.91
2023-03-06T13:39:12.929Z,95033.09
2023-03-06T13:41:43.879Z,95027.69
2023-03-06T13:44:25.567Z,95026.56
2023-03-06T13:47:05.753Z,95024.94
2023-03-06T13:49:33.978Z,95034.50
2023-03-06T13:52:21.466Z,95023.97
2023-03-06T13:55:06.307Z,95030.28
2023-03-06T13:57:54.074Z,95028.78
2023-03-06T14:00:39.395Z,95029.97
2023-03-06T14:03:09.121Z,95023.72
2023-03-06T14:05:47.344Z,95027.41
2023-03-06T14:08:17.459Z,95023.63
2023-03-06T14:10:47.266Z,95021.25
2023-03-06T14:13:41.827Z,95018.28
2023-03-06T14:16:21.361Z,95026.09
2023-03-06T14:18:50.751Z,95013.09
2023-03-06T14:21:27.744Z,95020.59
2023-03-06T14:24:02.957Z,95013.63
2023-03-06T14:26:44.882Z,95016.38
2023-03-06T14:29:21.278Z,95017.44
2023-03-06T14:31:51.100Z,95015.28
2023-03-06T14:34:45.959Z,95011.94
2023-03-06T14:37:22.797Z,95009.28
2023-03-06T14:39:49.601Z,95002.84
2023-03-06T14:42:26.211Z,95010.06
2023-03-06T14:45:16.733Z,95005.94
2023-03-06T14:47:49.241Z,95012.16
2023-03-06T14:50:20.232Z,95002.38
2023-03-06T14:52:47.616Z,95009.78
2023-03-06T14:55:19.834Z,95009.72
2023-03-06T14:57:53.590Z,95007.13
2023-03-06T15:00:24.581Z,95004.38
2023-03-06T15:02:54.358Z,95006.91
2023-03-06T15:05:29.977Z,95008.25
2023-03-06T15:08:03.449Z,95015.19
2023-03-06T15:10:32.729Z,94997.94
2023-03-06T15:13:21.583Z,94999.72
2023-03-06T15:16:18.701Z,95011.03
2023-03-06T15:18:59.402Z,95016.19
2023-03-06T15:21:27.497Z,95019.06
2023-03-06T15:23:56.819Z,95011.03
2023-03-06T15:26:29.450Z,95023.91
2023-03-06T15:29:08.926Z,95020.66
2023-03-06T15:32:17.294Z,95020.50
2023-03-06T15:34:43.902Z,95025.63
2023-03-06T15:37:28.113Z,95016.97
2023-03-06T15:40:09.428Z,95019.06
2023-03-06T15:42:36.661Z,95022.78
2023-03-06T15:45:16.007Z,95026.50
2023-03-06T15:47:44.814Z,95032.84
2023-03-06T15:50:26.606Z,95034.34
2023-03-06T15:52:53.528Z,95025.16
2023-03-06T15:55:23.880Z,95034.69
2023-03-06T15:57:54.413Z,95028.03
2023-03-06T16:00:29.694Z,95019.53
2023-03-06T16:02:57.394Z,95031.97
2023-03-06T16:05:25.447Z,95027.34
2023-03-06T16:07:52.098Z,95033.22
2023-03-06T16:10:21.881Z,95031.53
2023-03-06T16:12:56.502Z,95033.78
2023-03-06T16:15:28.991Z,95044.50
2023-03-06T16:17:59.856Z,95035.38
2023-03-06T16:20:28.588Z,95031.53
2023-03-06T16:22:55.868Z,95041.59
2023-03-06T16:25:24.817Z,95040.13
2023-03-06T16:27:59.963Z,95043.69
2023-03-06T16:30:29.709Z,95043.03
2023-03-06T16:32:57.121Z,95046.22
2023-03-06T16:35:24.181Z,95048.25
2023-03-06T16:37:51.772Z,95034.66
2023-03-06T16:40:30.899Z,95030.06
2023-03-06T16:42:57.480Z,95039.06
2023-03-06T16:45:24.698Z,95029.06
2023-03-06T16:47:51.918Z,95036.13
2023-03-06T16:50:26.346Z,95038.34
2023-03-06T16:52:54.890Z,95039.22
2023-03-06T16:55:22.482Z,95028.97
2023-03-06T16:57:49.253Z,95042.06
2023-03-06T17:00:18.712Z,95044.16
2023-03-06T17:02:48.763Z,95046.22
2023-03-06T17:05:15.623Z,95045.56
2023-03-06T17:07:42.422Z,95041.59
2023-03-06T17:10:13.229Z,95053.53
2023-03-06T17:12:39.898Z,95050.09
2023-03-06T17:15:07.521Z,95050.72
2023-03-06T17:17:34.384Z,95044.03
2023-03-06T17:20:01.524Z,95050.94
2023-03-06T17:22:28.467Z,95051.78
2023-03-06T17:24:55.083Z,95057.19
2023-03-06T17:27:22.956Z,95058.09
2023-03-06T17:29:49.672Z,95058.91
2023-03-06T17:32:16.321Z,95064.97
2023-03-06T17:34:43.049Z,95070.25
2023-03-06T17:37:09.723Z,95069.19
2023-03-06T17:39:38.911Z,95074.09
2023-03-06T17:42:06.648Z,95068.81
2023-03-06T17:44:34.526Z,95075.19
2023-03-06T17:47:01.890Z,95075.81
2023-03-06T17:49:28.604Z,95078.94
2023-03-06T17:51:58.039Z,95076.84
2023-03-06T17:54:29.297Z,95072.34
2023-03-06T17:57:04.539Z,95074.09
2023-03-06T17:59:34.222Z,95075.72
2023-03-06T18:02:01.307Z,95072.03
2023-03-06T18:04:28.143Z,95079.84
2023-03-06T18:06:54.922Z,95087.16
2023-03-06T18:09:21.603Z,95080.94
2023-03-06T18:11:48.203Z,95088.44
2023-03-06T18:14:14.911Z,95083.09
2023-03-06T18:16:41.621Z,95081.22
2023-03-06T18:19:11.112Z,95075.31
2023-03-06T18:21:39.657Z,95080.56
2023-03-06T18:24:07.048Z,95088.16
2023-03-06T18:26:33.794Z,95093.25
2023-03-06T18:29:04.372Z,95089.59
2023-03-06T18:31:39.765Z,95091.97
2023-03-06T18:34:12.230Z,95085.91
2023-03-06T18:36:39.736Z,95098.69
2023-03-06T18:39:09.632Z,95100.06
2023-03-06T18:41:37.134Z,95099.94
2023-03-06T18:44:04.450Z,95100.69
2023-03-06T18:46:36.897Z,95099.66
2023-03-06T18:49:04.298Z,95099.97
2023-03-06T18:51:31.285Z,95113.34
2023-03-06T18:53:59.037Z,95109.00
2023-03-06T18:56:25.859Z,95112.34
2023-03-06T18:58:52.858Z,95113.25
2023-03-06T19:01:19.620Z,95107.44
2023-03-06T19:03:46.855Z,95119.91
2023-03-06T19:06:15.372Z,95127.03
2023-03-06T19:08:42.206Z,95123.34
2023-03-06T19:11:17.050Z,95126.56
2023-03-06T19:13:44.584Z,95121.66
2023-03-06T19:16:28.328Z,95124.31
2023-03-06T19:18:56.180Z,95131.06
2023-03-06T19:21:24.854Z,95120.00
2023-03-06T19:23:51.789Z,95115.63
2023-03-06T19:26:18.998Z,95126.50
2023-03-06T19:28:46.537Z,95123.63
2023-03-06T19:31:24.205Z,95116.19
2023-03-06T19:33:53.140Z,95121.09
2023-03-06T19:36:23.652Z,95120.00
2023-03-06T19:38:54.955Z,95120.06
2023-03-06T19:41:21.905Z,95114.22
2023-03-06T19:43:54.799Z,95117.31
2023-03-06T19:46:22.895Z,95126.59
2023-03-06T19:48:57.661Z,95128.13
2023-03-06T19:51:25.572Z,95133.00
2023-03-06T19:53:52.839Z,95127.63
2023-03-06T19:56:22.678Z,95129.41
2023-03-06T19:58:49.288Z,95127.03
2023-03-06T20:01:20.783Z,95123.84
2023-03-06T20:03:47.590Z,95129.72
2023-03-06T20:06:17.474Z,95130.78
2023-03-06T20:08:45.250Z,95129.41
2023-03-06T20:11:19.533Z,95124.72
2023-03-06T20:13:47.946Z,95134.25
2023-03-06T20:16:15.417Z,95136.44
2023-03-06T20:18:42.412Z,95132.56
2023-03-06T20:21:09.114Z,95135.75
2023-03-06T20:23:35.846Z,95133.69
2023-03-06T20:26:14.963Z,95147.97
2023-03-06T20:28:42.970Z,95132.66
2023-03-06T20:31:26.466Z,95146.06
2023-03-06T20:33:54.263Z,95145.19
2023-03-06T20:36:23.849Z,95144.88
2023-03-06T20:38:50.845Z,95143.13
2023-03-06T20:41:23.018Z,95141.97
2023-03-06T20:43:50.006Z,95145.41
2023-03-06T20:46:17.763Z,95144.44
2023-03-06T20:48:48.539Z,95151.47
2023-03-06T20:51:18.853Z,95152.56
2023-03-06T20:53:49.698Z,95150.06
2023-03-06T20:56:18.587Z,95159.59
2023-03-06T20:58:45.405Z,95158.69
2023-03-06T21:01:41.211Z,95144.59
2023-03-06T21:04:13.969Z,95144.78
2023-03-06T21:06:43.987Z,95146.53
2023-03-06T21:09:11.102Z,95149.19
2023-03-06T21:11:37.974Z,95143.28
2023-03-06T21:14:04.637Z,95141.81
2023-03-06T21:16:31.342Z,95148.44
2023-03-06T21:18:59.863Z,95148.38
2023-03-06T21:21:29.748Z,95145.69
2023-03-06T21:23:56.596Z,95146.72
2023-03-06T21:26:26.013Z,95145.00
2023-03-06T21:28:53.306Z,95134.44
2023-03-06T21:31:21.672Z,95137.66
2023-03-06T21:33:49.852Z,95130.38
2023-03-06T21:36:18.745Z,95129.97
2023-03-06T21:38:45.597Z,95123.53
2023-03-06T21:41:17.799Z,95128.44
2023-03-06T21:43:44.686Z,95122.69
2023-03-06T21:46:11.946Z,95120.72
2023-03-06T21:48:38.648Z,95120.69
2023-03-06T21:51:13.738Z,95123.28
2023-03-06T21:53:44.265Z,95124.09
2023-03-06T21:56:12.170Z,95127.88
2023-03-06T21:58:39.281Z,95121.03
2023-03-06T22:01:21.808Z,95119.22
2023-03-06T22:03:48.691Z,95113.47
2023-03-06T22:06:18.555Z,95116.28
2023-03-06T22:08:46.361Z,95122.72
2023-03-06T22:11:16.067Z,95114.97
2023-03-06T22:13:43.347Z,95118.94
2023-03-06T22:16:10.428Z,95114.03
2023-03-06T22:18:37.735Z,95112.28
2023-03-06T22:21:09.327Z,95123.94
2023-03-06T22:23:36.305Z,95122.00
2023-03-06T22:26:08.314Z,95117.03
2023-03-06T22:28:35.344Z,95117.81
2023-03-06T22:31:09.847Z,95114.19
2023-03-06T22:33:36.887Z,95113.72
2023-03-06T22:36:07.663Z,95111.81
2023-03-06T22:38:39.993Z,95110.53
2023-03-06T22:41:07.988Z,95107.09
2023-03-06T22:43:35.559Z,95111.88
2023-03-06T22:46:11.069Z,95105.03
2023-03-06T22:48:38.136Z,95103.97
2023-03-06T22:51:10.801Z,95101.34
2023-03-06T22:53:38.010Z,95103.19
2023-03-06T22:56:06.893Z,95096.84
2023-03-06T22:58:37.146Z,95095.81
2023-03-06T23:01:09.864Z,95088.91
2023-03-06T23:03:38.515Z,95087.31
2023-03-06T23:06:12.798Z,95098.97
2023-03-06T23:08:39.434Z,95089.16
2023-03-06T23:11:10.957Z,95078.06
2023-03-06T23:13:38.518Z,95088.91
2023-03-06T23:16:06.930Z,95078.88
2023-03-06T23:18:35.315Z,95080.97
2023-03-06T23:21:09.496Z,95090.53
2023-03-06T23:23:40.168Z,95084.97
2023-03-06T23:26:08.530Z,95081.50
2023-03-06T23:28:35.224Z,95086.00
2023-03-06T23:31:12.975Z,95083.38
2023-03-06T23:33:39.966Z,95083.09
2023-03-06T23:36:09.411Z,95086.78
2023-03-06T23:38:36.088Z,95089.72
2023-03-06T23:41:11.530Z,95081.75
2023-03-06T23:43:38.458Z,95077.44
2023-03-06T23:46:07.070Z,95083.56
2023-03-06T23:48:35.911Z,95076.63
2023-03-06T23:51:24.098Z,95079.25
2023-03-06T23:53:56.610Z,95073.69
2023-03-06T23:56:24.733Z,95064.91
2023-03-06T23:58:51.596Z,95066.56
